sensor_id;sensor_type;location;lat;lon;timestamp;temperature;humidity
9790;DHT22;4934;50.852;8.098;2023-02-08T00:01:14;-5.00;99.90
9790;DHT22;4934;50.852;8.098;2023-02-08T00:03:40;-5.00;99.90
9790;DHT22;4934;50.852;8.098;2023-02-08T00:06:06;-5.10;99.90
9790;DHT22;4934;50.852;8.098;2023-02-08T00:08:32;-5.10;99.90
9790;DHT22;4934;50.852;8.098;2023-02-08T00:10:58;-5.10;99.90
9790;DHT22;4934;50.852;8.098;2023-02-08T00:13:24;-5.10;99.90
9790;DHT22;4934;50.852;8.098;2023-02-08T00:15:52;-5.20;99.90
9790;DHT22;4934;50.852;8.098;2023-02-08T00:18:19;-5.30;99.90
9790;DHT22;4934;50.852;8.098;2023-02-08T00:20:44;-5.30;99.90
9790;DHT22;4934;50.852;8.098;2023-02-08T00:23:11;-5.30;99.90
9790;DHT22;4934;50.852;8.098;2023-02-08T00:25:38;-5.30;99.90
9790;DHT22;4934;50.852;8.098;2023-02-08T00:28:03;-5.30;99.90
9790;DHT22;4934;50.852;8.098;2023-02-08T00:30:29;-5.40;99.90
9790;DHT22;4934;50.852;8.098;2023-02-08T00:32:55;-5.40;99.90
9790;DHT22;4934;50.852;8.098;2023-02-08T00:35:20;-5.40;99.90
9790;DHT22;4934;50.852;8.098;2023-02-08T00:37:46;-5.20;99.90
9790;DHT22;4934;50.852;8.098;2023-02-08T00:40:12;-5.30;99.90
9790;DHT22;4934;50.852;8.098;2023-02-08T00:42:38;-5.30;99.90
9790;DHT22;4934;50.852;8.098;2023-02-08T00:45:04;-5.30;99.90
9790;DHT22;4934;50.852;8.098;2023-02-08T00:47:29;-5.40;99.90
9790;DHT22;4934;50.852;8.098;2023-02-08T00:49:55;-5.30;99.90
9790;DHT22;4934;50.852;8.098;2023-02-08T00:52:21;-5.30;99.90
9790;DHT22;4934;50.852;8.098;2023-02-08T00:54:47;-5.40;99.90
9790;DHT22;4934;50.852;8.098;2023-02-08T00:57:13;-5.40;99.90
9790;DHT22;4934;50.852;8.098;2023-02-08T00:59:39;-5.50;99.90
9790;DHT22;4934;50.852;8.098;2023-02-08T01:02:05;-5.50;99.90
9790;DHT22;4934;50.852;8.098;2023-02-08T01:04:31;-5.50;99.90
9790;DHT22;4934;50.852;8.098;2023-02-08T01:06:57;-5.60;99.90
9790;DHT22;4934;50.852;8.098;2023-02-08T01:09:23;-5.60;99.90
9790;DHT22;4934;50.852;8.098;2023-02-08T01:11:49;-5.70;99.90
9790;DHT22;4934;50.852;8.098;2023-02-08T01:14:15;-5.70;99.90
9790;DHT22;4934;50.852;8.098;2023-02-08T01:16:41;-5.70;99.90
9790;DHT22;4934;50.852;8.098;2023-02-08T01:19:07;-5.60;99.90
9790;DHT22;4934;50.852;8.098;2023-02-08T01:21:35;-5.60;99.90
9790;DHT22;4934;50.852;8.098;2023-02-08T01:24:01;-5.60;99.90
9790;DHT22;4934;50.852;8.098;2023-02-08T01:26:27;-5.60;99.90
9790;DHT22;4934;50.852;8.098;2023-02-08T01:28:54;-5.60;99.90
9790;DHT22;4934;50.852;8.098;2023-02-08T01:31:27;-5.60;99.90
9790;DHT22;4934;50.852;8.098;2023-02-08T01:33:56;-5.70;99.90
9790;DHT22;4934;50.852;8.098;2023-02-08T01:36:22;-5.70;99.90
9790;DHT22;4934;50.852;8.098;2023-02-08T01:38:48;-5.80;99.90
9790;DHT22;4934;50.852;8.098;2023-02-08T01:41:17;-5.80;99.90
9790;DHT22;4934;50.852;8.098;2023-02-08T01:46:48;-5.80;99.90
9790;DHT22;4934;50.852;8.098;2023-02-08T01:49:27;-5.80;99.90
9790;DHT22;4934;50.852;8.098;2023-02-08T01:54:23;-5.80;99.90
9790;DHT22;4934;50.852;8.098;2023-02-08T01:56:51;-5.90;99.90
9790;DHT22;4934;50.852;8.098;2023-02-08T01:59:22;-5.80;99.90
9790;DHT22;4934;50.852;8.098;2023-02-08T02:01:50;-5.70;99.90
9790;DHT22;4934;50.852;8.098;2023-02-08T02:04:17;-5.80;99.90
9790;DHT22;4934;50.852;8.098;2023-02-08T02:06:45;-5.70;99.90
9790;DHT22;4934;50.852;8.098;2023-02-08T02:09:23;-5.70;99.90
9790;DHT22;4934;50.852;8.098;2023-02-08T02:11:52;-5.80;99.90
9790;DHT22;4934;50.852;8.098;2023-02-08T02:14:19;-5.80;99.90
9790;DHT22;4934;50.852;8.098;2023-02-08T02:16:44;-5.90;99.90
9790;DHT22;4934;50.852;8.098;2023-02-08T02:19:22;-6.00;99.90
9790;DHT22;4934;50.852;8.098;2023-02-08T02:27:46;-6.00;99.90
9790;DHT22;4934;50.852;8.098;2023-02-08T02:32:51;-6.20;99.90
9790;DHT22;4934;50.852;8.098;2023-02-08T02:35:44;-6.20;99.90
9790;DHT22;4934;50.852;8.098;2023-02-08T02:38:24;-6.20;99.90
9790;DHT22;4934;50.852;8.098;2023-02-08T02:44:34;-6.30;99.90
9790;DHT22;4934;50.852;8.098;2023-02-08T02:47:20;-6.30;99.90
9790;DHT22;4934;50.852;8.098;2023-02-08T02:52:47;-6.30;99.90
9790;DHT22;4934;50.852;8.098;2023-02-08T02:55:17;-6.30;99.90
9790;DHT22;4934;50.852;8.098;2023-02-08T02:57:46;-6.30;99.90
9790;DHT22;4934;50.852;8.098;2023-02-08T03:00:20;-6.40;99.90
9790;DHT22;4934;50.852;8.098;2023-02-08T03:02:46;-6.40;99.90
9790;DHT22;4934;50.852;8.098;2023-02-08T03:05:12;-6.40;99.90
9790;DHT22;4934;50.852;8.098;2023-02-08T03:19:26;-6.50;99.90
9790;DHT22;4934;50.852;8.098;2023-02-08T03:27:10;-6.50;99.90
9790;DHT22;4934;50.852;8.098;2023-02-08T03:29:58;-6.50;99.90
9790;DHT22;4934;50.852;8.098;2023-02-08T03:35:16;-6.30;99.90
9790;DHT22;4934;50.852;8.098;2023-02-08T03:37:54;-6.10;99.90
9790;DHT22;4934;50.852;8.098;2023-02-08T03:40:24;-6.10;99.90
9790;DHT22;4934;50.852;8.098;2023-02-08T03:42:54;-6.00;99.90
9790;DHT22;4934;50.852;8.098;2023-02-08T03:45:32;-6.00;99.90
9790;DHT22;4934;50.852;8.098;2023-02-08T03:48:03;-6.10;99.90
9790;DHT22;4934;50.852;8.098;2023-02-08T03:50:33;-6.20;99.90
9790;DHT22;4934;50.852;8.098;2023-02-08T03:52:59;-6.30;99.90
9790;DHT22;4934;50.852;8.098;2023-02-08T03:55:28;-6.40;99.90
9790;DHT22;4934;50.852;8.098;2023-02-08T03:58:00;-6.50;99.90
9790;DHT22;4934;50.852;8.098;2023-02-08T04:00:30;-6.50;99.90
9790;DHT22;4934;50.852;8.098;2023-02-08T04:03:14;-6.60;99.90
9790;DHT22;4934;50.852;8.098;2023-02-08T04:05:41;-6.60;99.90
9790;DHT22;4934;50.852;8.098;2023-02-08T04:08:07;-6.60;99.90
9790;DHT22;4934;50.852;8.098;2023-02-08T04:10:33;-6.70;99.90
9790;DHT22;4934;50.852;8.098;2023-02-08T04:12:58;-6.70;99.90
9790;DHT22;4934;50.852;8.098;2023-02-08T04:15:24;-6.70;99.90
9790;DHT22;4934;50.852;8.098;2023-02-08T04:17:52;-6.70;99.90
9790;DHT22;4934;50.852;8.098;2023-02-08T04:20:17;-6.70;99.90
9790;DHT22;4934;50.852;8.098;2023-02-08T04:22:43;-6.70;99.90
9790;DHT22;4934;50.852;8.098;2023-02-08T04:25:09;-6.80;99.90
9790;DHT22;4934;50.852;8.098;2023-02-08T04:27:34;-6.90;99.90
9790;DHT22;4934;50.852;8.098;2023-02-08T04:30:00;-6.80;99.90
9790;DHT22;4934;50.852;8.098;2023-02-08T04:32:25;-6.80;99.90
9790;DHT22;4934;50.852;8.098;2023-02-08T04:34:51;-6.80;99.90
9790;DHT22;4934;50.852;8.098;2023-02-08T04:37:17;-6.80;99.90
9790;DHT22;4934;50.852;8.098;2023-02-08T04:39:42;-6.80;99.90
9790;DHT22;4934;50.852;8.098;2023-02-08T04:42:08;-6.80;99.90
9790;DHT22;4934;50.852;8.098;2023-02-08T04:44:34;-6.80;99.90
9790;DHT22;4934;50.852;8.098;2023-02-08T04:47:00;-6.80;99.90
9790;DHT22;4934;50.852;8.098;2023-02-08T04:49:25;-6.90;99.90
9790;DHT22;4934;50.852;8.098;2023-02-08T04:51:51;-6.80;99.90
9790;DHT22;4934;50.852;8.098;2023-02-08T04:54:16;-6.80;99.90
9790;DHT22;4934;50.852;8.098;2023-02-08T04:56:42;-6.90;99.90
9790;DHT22;4934;50.852;8.098;2023-02-08T04:59:08;-6.90;99.90
9790;DHT22;4934;50.852;8.098;2023-02-08T05:01:33;-6.90;99.90
9790;DHT22;4934;50.852;8.098;2023-02-08T05:03:59;-6.90;99.90
9790;DHT22;4934;50.852;8.098;2023-02-08T05:06:24;-6.90;99.90
9790;DHT22;4934;50.852;8.098;2023-02-08T05:08:50;-7.00;99.90
9790;DHT22;4934;50.852;8.098;2023-02-08T05:11:23;-7.00;99.90
9790;DHT22;4934;50.852;8.098;2023-02-08T05:13:52;-7.00;99.90
9790;DHT22;4934;50.852;8.098;2023-02-08T05:16:18;-7.00;99.90
9790;DHT22;4934;50.852;8.098;2023-02-08T05:18:43;-7.00;99.90
9790;DHT22;4934;50.852;8.098;2023-02-08T05:21:09;-7.00;99.90
9790;DHT22;4934;50.852;8.098;2023-02-08T05:23:36;-7.00;99.90
9790;DHT22;4934;50.852;8.098;2023-02-08T05:26:06;-7.00;99.90
9790;DHT22;4934;50.852;8.098;2023-02-08T05:28:32;-7.00;99.90
9790;DHT22;4934;50.852;8.098;2023-02-08T05:30:57;-7.00;99.90
9790;DHT22;4934;50.852;8.098;2023-02-08T05:33:23;-7.00;99.90
9790;DHT22;4934;50.852;8.098;2023-02-08T05:35:49;-7.00;99.90
9790;DHT22;4934;50.852;8.098;2023-02-08T05:38:14;-7.10;99.90
9790;DHT22;4934;50.852;8.098;2023-02-08T05:40:40;-7.10;99.90
9790;DHT22;4934;50.852;8.098;2023-02-08T05:43:05;-7.00;99.90
9790;DHT22;4934;50.852;8.098;2023-02-08T05:45:31;-6.90;99.90
9790;DHT22;4934;50.852;8.098;2023-02-08T05:47:57;-7.00;99.90
9790;DHT22;4934;50.852;8.098;2023-02-08T05:50:22;-7.00;99.90
9790;DHT22;4934;50.852;8.098;2023-02-08T05:52:48;-7.00;99.90
9790;DHT22;4934;50.852;8.098;2023-02-08T05:55:14;-7.10;99.90
9790;DHT22;4934;50.852;8.098;2023-02-08T05:57:40;-7.10;99.90
9790;DHT22;4934;50.852;8.098;2023-02-08T06:00:06;-7.10;99.90
9790;DHT22;4934;50.852;8.098;2023-02-08T06:02:32;-7.10;99.90
9790;DHT22;4934;50.852;8.098;2023-02-08T06:04:58;-7.10;99.90
9790;DHT22;4934;50.852;8.098;2023-02-08T06:07:24;-7.20;99.90
9790;DHT22;4934;50.852;8.098;2023-02-08T06:09:49;-7.20;99.90
9790;DHT22;4934;50.852;8.098;2023-02-08T06:12:15;-7.20;99.90
9790;DHT22;4934;50.852;8.098;2023-02-08T06:14:41;-7.20;99.90
9790;DHT22;4934;50.852;8.098;2023-02-08T06:17:06;-7.20;99.90
9790;DHT22;4934;50.852;8.098;2023-02-08T06:19:32;-7.20;99.90
9790;DHT22;4934;50.852;8.098;2023-02-08T06:21:58;-7.20;99.90
9790;DHT22;4934;50.852;8.098;2023-02-08T06:24:23;-7.20;99.90
9790;DHT22;4934;50.852;8.098;2023-02-08T06:26:49;-7.20;99.90
9790;DHT22;4934;50.852;8.098;2023-02-08T06:29:15;-7.20;99.90
9790;DHT22;4934;50.852;8.098;2023-02-08T06:31:41;-7.20;99.90
9790;DHT22;4934;50.852;8.098;2023-02-08T06:34:06;-7.10;99.90
9790;DHT22;4934;50.852;8.098;2023-02-08T06:36:32;-7.10;99.90
9790;DHT22;4934;50.852;8.098;2023-02-08T06:38:58;-7.20;99.90
9790;DHT22;4934;50.852;8.098;2023-02-08T06:41:24;-7.20;99.90
9790;DHT22;4934;50.852;8.098;2023-02-08T06:43:49;-7.20;99.90
9790;DHT22;4934;50.852;8.098;2023-02-08T06:46:16;-7.20;99.90
9790;DHT22;4934;50.852;8.098;2023-02-08T06:48:41;-7.20;99.90
9790;DHT22;4934;50.852;8.098;2023-02-08T06:51:07;-7.20;99.90
9790;DHT22;4934;50.852;8.098;2023-02-08T06:53:32;-7.20;99.90
9790;DHT22;4934;50.852;8.098;2023-02-08T06:55:58;-7.20;99.90
9790;DHT22;4934;50.852;8.098;2023-02-08T06:58:24;-7.20;99.90
9790;DHT22;4934;50.852;8.098;2023-02-08T07:00:49;-7.20;99.90
9790;DHT22;4934;50.852;8.098;2023-02-08T07:03:15;-7.10;99.90
9790;DHT22;4934;50.852;8.098;2023-02-08T07:05:42;-7.10;99.90
9790;DHT22;4934;50.852;8.098;2023-02-08T07:08:07;-7.10;99.90
9790;DHT22;4934;50.852;8.098;2023-02-08T07:10:33;-7.10;99.90
9790;DHT22;4934;50.852;8.098;2023-02-08T07:13:00;-7.10;99.90
9790;DHT22;4934;50.852;8.098;2023-02-08T07:15:26;-7.10;99.90
9790;DHT22;4934;50.852;8.098;2023-02-08T07:17:52;-7.10;99.90
9790;DHT22;4934;50.852;8.098;2023-02-08T07:20:21;-7.10;99.90
9790;DHT22;4934;50.852;8.098;2023-02-08T07:22:47;-7.00;99.90
9790;DHT22;4934;50.852;8.098;2023-02-08T07:25:13;-6.90;99.90
9790;DHT22;4934;50.852;8.098;2023-02-08T07:27:38;-6.90;99.90
9790;DHT22;4934;50.852;8.098;2023-02-08T07:30:06;-6.90;99.90
9790;DHT22;4934;50.852;8.098;2023-02-08T07:32:33;-6.90;99.90
9790;DHT22;4934;50.852;8.098;2023-02-08T07:34:58;-6.80;99.90
9790;DHT22;4934;50.852;8.098;2023-02-08T07:37:25;-6.80;99.90
9790;DHT22;4934;50.852;8.098;2023-02-08T07:39:50;-6.80;99.90
9790;DHT22;4934;50.852;8.098;2023-02-08T07:42:16;-6.70;99.90
9790;DHT22;4934;50.852;8.098;2023-02-08T07:44:42;-6.70;99.90
9790;DHT22;4934;50.852;8.098;2023-02-08T07:47:07;-6.60;99.90
9790;DHT22;4934;50.852;8.098;2023-02-08T07:49:33;-6.60;99.90
9790;DHT22;4934;50.852;8.098;2023-02-08T07:51:59;-6.50;99.90
9790;DHT22;4934;50.852;8.098;2023-02-08T07:54:25;-6.50;99.90
9790;DHT22;4934;50.852;8.098;2023-02-08T07:56:51;-6.40;99.90
9790;DHT22;4934;50.852;8.098;2023-02-08T07:59:20;-6.40;99.90
9790;DHT22;4934;50.852;8.098;2023-02-08T08:01:45;-6.30;99.90
9790;DHT22;4934;50.852;8.098;2023-02-08T08:04:11;-6.20;99.90
9790;DHT22;4934;50.852;8.098;2023-02-08T08:06:37;-6.20;99.90
9790;DHT22;4934;50.852;8.098;2023-02-08T08:09:02;-6.10;99.90
9790;DHT22;4934;50.852;8.098;2023-02-08T08:11:28;-6.10;99.90
9790;DHT22;4934;50.852;8.098;2023-02-08T08:13:54;-6.00;99.90
9790;DHT22;4934;50.852;8.098;2023-02-08T08:16:19;-5.90;99.90
9790;DHT22;4934;50.852;8.098;2023-02-08T08:18:45;-5.80;99.90
9790;DHT22;4934;50.852;8.098;2023-02-08T08:21:11;-5.70;99.90
9790;DHT22;4934;50.852;8.098;2023-02-08T08:23:38;-5.60;99.90
9790;DHT22;4934;50.852;8.098;2023-02-08T08:26:21;-5.40;99.90
9790;DHT22;4934;50.852;8.098;2023-02-08T08:28:47;-5.30;99.90
9790;DHT22;4934;50.852;8.098;2023-02-08T08:31:18;-5.20;99.90
9790;DHT22;4934;50.852;8.098;2023-02-08T08:33:45;-5.00;99.90
9790;DHT22;4934;50.852;8.098;2023-02-08T08:36:11;-4.90;99.90
9790;DHT22;4934;50.852;8.098;2023-02-08T08:38:37;-4.80;99.90
9790;DHT22;4934;50.852;8.098;2023-02-08T08:41:10;-4.70;99.90
9790;DHT22;4934;50.852;8.098;2023-02-08T08:43:36;-4.50;99.90
9790;DHT22;4934;50.852;8.098;2023-02-08T08:46:04;-4.40;99.90
9790;DHT22;4934;50.852;8.098;2023-02-08T08:48:30;-4.20;99.90
9790;DHT22;4934;50.852;8.098;2023-02-08T08:50:55;-4.20;99.90
9790;DHT22;4934;50.852;8.098;2023-02-08T08:53:21;-4.10;99.90
9790;DHT22;4934;50.852;8.098;2023-02-08T08:55:47;-4.00;99.90
9790;DHT22;4934;50.852;8.098;2023-02-08T08:58:12;-3.90;99.90
9790;DHT22;4934;50.852;8.098;2023-02-08T09:00:38;-3.70;99.90
9790;DHT22;4934;50.852;8.098;2023-02-08T09:03:04;-3.60;99.90
9790;DHT22;4934;50.852;8.098;2023-02-08T09:05:29;-3.40;99.90
9790;DHT22;4934;50.852;8.098;2023-02-08T09:07:55;-3.20;99.90
9790;DHT22;4934;50.852;8.098;2023-02-08T09:10:20;-3.10;99.90
9790;DHT22;4934;50.852;8.098;2023-02-08T09:12:46;-3.00;99.90
9790;DHT22;4934;50.852;8.098;2023-02-08T09:15:12;-2.90;99.90
9790;DHT22;4934;50.852;8.098;2023-02-08T09:17:37;-2.70;99.90
9790;DHT22;4934;50.852;8.098;2023-02-08T09:20:04;-2.60;99.90
9790;DHT22;4934;50.852;8.098;2023-02-08T09:22:30;-2.40;99.90
9790;DHT22;4934;50.852;8.098;2023-02-08T09:24:55;-2.30;99.90
9790;DHT22;4934;50.852;8.098;2023-02-08T09:27:21;-2.00;99.90
9790;DHT22;4934;50.852;8.098;2023-02-08T09:29:47;-1.80;99.90
9790;DHT22;4934;50.852;8.098;2023-02-08T09:32:12;-1.60;99.90
9790;DHT22;4934;50.852;8.098;2023-02-08T09:34:38;-1.30;99.90
9790;DHT22;4934;50.852;8.098;2023-02-08T09:37:04;-1.00;99.90
9790;DHT22;4934;50.852;8.098;2023-02-08T09:39:31;-0.90;99.90
9790;DHT22;4934;50.852;8.098;2023-02-08T09:42:24;-0.70;99.90
9790;DHT22;4934;50.852;8.098;2023-02-08T09:47:41;-0.20;99.90
9790;DHT22;4934;50.852;8.098;2023-02-08T09:50:22;-0.10;99.90
9790;DHT22;4934;50.852;8.098;2023-02-08T09:52:58;0.00;99.90
9790;DHT22;4934;50.852;8.098;2023-02-08T09:55:36;0.20;99.90
9790;DHT22;4934;50.852;8.098;2023-02-08T09:58:50;0.30;99.90
9790;DHT22;4934;50.852;8.098;2023-02-08T10:00:53;0.40;99.90
9790;DHT22;4934;50.852;8.098;2023-02-08T10:03:26;0.50;99.90
9790;DHT22;4934;50.852;8.098;2023-02-08T10:05:53;0.60;99.90
9790;DHT22;4934;50.852;8.098;2023-02-08T10:08:19;0.70;99.90
9790;DHT22;4934;50.852;8.098;2023-02-08T10:10:58;0.80;99.90
9790;DHT22;4934;50.852;8.098;2023-02-08T10:13:42;0.80;99.90
9790;DHT22;4934;50.852;8.098;2023-02-08T10:33:02;1.40;99.90
9790;DHT22;4934;50.852;8.098;2023-02-08T10:35:32;1.50;99.90
9790;DHT22;4934;50.852;8.098;2023-02-08T10:38:20;1.50;99.90
9790;DHT22;4934;50.852;8.098;2023-02-08T10:40:49;1.50;99.90
9790;DHT22;4934;50.852;8.098;2023-02-08T10:51:18;1.90;99.10
9790;DHT22;4934;50.852;8.098;2023-02-08T10:53:44;1.90;98.60
9790;DHT22;4934;50.852;8.098;2023-02-08T10:56:42;2.00;96.70
9790;DHT22;4934;50.852;8.098;2023-02-08T11:01:44;2.10;96.00
9790;DHT22;4934;50.852;8.098;2023-02-08T11:04:11;2.20;96.00
9790;DHT22;4934;50.852;8.098;2023-02-08T11:06:39;2.20;96.40
9790;DHT22;4934;50.852;8.098;2023-02-08T11:09:05;2.30;96.10
9790;DHT22;4934;50.852;8.098;2023-02-08T11:11:39;2.40;96.20
9790;DHT22;4934;50.852;8.098;2023-02-08T11:14:12;2.50;95.10
9790;DHT22;4934;50.852;8.098;2023-02-08T11:16:40;2.50;95.80
9790;DHT22;4934;50.852;8.098;2023-02-08T11:19:27;2.60;94.50
9790;DHT22;4934;50.852;8.098;2023-02-08T11:21:53;2.60;96.10
9790;DHT22;4934;50.852;8.098;2023-02-08T11:24:31;2.70;96.50
9790;DHT22;4934;50.852;8.098;2023-02-08T11:27:00;2.70;94.10
9790;DHT22;4934;50.852;8.098;2023-02-08T11:29:28;2.70;92.70
9790;DHT22;4934;50.852;8.098;2023-02-08T11:34:35;2.80;93.10
9790;DHT22;4934;50.852;8.098;2023-02-08T11:37:25;3.00;94.60
9790;DHT22;4934;50.852;8.098;2023-02-08T11:39:57;3.10;92.20
9790;DHT22;4934;50.852;8.098;2023-02-08T11:42:25;3.10;92.10
9790;DHT22;4934;50.852;8.098;2023-02-08T11:44:53;3.00;91.40
9790;DHT22;4934;50.852;8.098;2023-02-08T11:47:30;3.10;91.80
9790;DHT22;4934;50.852;8.098;2023-02-08T11:50:02;3.20;91.00
9790;DHT22;4934;50.852;8.098;2023-02-08T11:52:33;3.20;91.10
9790;DHT22;4934;50.852;8.098;2023-02-08T11:55:33;3.40;93.90
9790;DHT22;4934;50.852;8.098;2023-02-08T11:58:19;3.50;91.40
9790;DHT22;4934;50.852;8.098;2023-02-08T12:01:05;3.60;90.50
9790;DHT22;4934;50.852;8.098;2023-02-08T12:03:31;3.70;92.60
9790;DHT22;4934;50.852;8.098;2023-02-08T12:06:36;3.80;91.80
9790;DHT22;4934;50.852;8.098;2023-02-08T12:11:42;3.90;91.00
9790;DHT22;4934;50.852;8.098;2023-02-08T12:14:27;4.00;91.00
9790;DHT22;4934;50.852;8.098;2023-02-08T12:17:23;4.10;87.30
9790;DHT22;4934;50.852;8.098;2023-02-08T12:22:56;4.20;88.50
9790;DHT22;4934;50.852;8.098;2023-02-08T12:28:28;4.30;87.60
9790;DHT22;4934;50.852;8.098;2023-02-08T12:31:10;4.30;89.00
9790;DHT22;4934;50.852;8.098;2023-02-08T12:33:49;4.40;89.70
9790;DHT22;4934;50.852;8.098;2023-02-08T12:39:49;4.40;90.10
9790;DHT22;4934;50.852;8.098;2023-02-08T12:48:59;4.50;90.70
9790;DHT22;4934;50.852;8.098;2023-02-08T12:55:12;4.50;87.00
9790;DHT22;4934;50.852;8.098;2023-02-08T12:57:42;4.60;90.60
9790;DHT22;4934;50.852;8.098;2023-02-08T13:00:35;4.70;89.30
9790;DHT22;4934;50.852;8.098;2023-02-08T13:06:06;4.80;89.60
9790;DHT22;4934;50.852;8.098;2023-02-08T13:08:40;4.80;90.40
9790;DHT22;4934;50.852;8.098;2023-02-08T13:13:42;4.80;87.00
9790;DHT22;4934;50.852;8.098;2023-02-08T13:16:17;4.80;87.40
9790;DHT22;4934;50.852;8.098;2023-02-08T13:19:06;4.80;90.30
9790;DHT22;4934;50.852;8.098;2023-02-08T13:21:36;4.90;88.70
9790;DHT22;4934;50.852;8.098;2023-02-08T13:24:25;5.00;89.60
9790;DHT22;4934;50.852;8.098;2023-02-08T13:26:51;4.90;89.20
9790;DHT22;4934;50.852;8.098;2023-02-08T13:29:19;5.00;90.20
9790;DHT22;4934;50.852;8.098;2023-02-08T13:31:50;5.00;90.00
9790;DHT22;4934;50.852;8.098;2023-02-08T13:34:24;5.00;90.30
9790;DHT22;4934;50.852;8.098;2023-02-08T13:36:54;5.00;90.30
9790;DHT22;4934;50.852;8.098;2023-02-08T13:39:32;5.00;89.40
9790;DHT22;4934;50.852;8.098;2023-02-08T13:42:00;5.00;88.80
9790;DHT22;4934;50.852;8.098;2023-02-08T13:44:37;4.90;85.40
9790;DHT22;4934;50.852;8.098;2023-02-08T13:47:05;4.90;87.80
9790;DHT22;4934;50.852;8.098;2023-02-08T14:03:27;5.00;85.70
9790;DHT22;4934;50.852;8.098;2023-02-08T14:08:56;5.00;84.30
9790;DHT22;4934;50.852;8.098;2023-02-08T14:14:30;4.90;83.40
9790;DHT22;4934;50.852;8.098;2023-02-08T14:17:27;4.90;82.10
9790;DHT22;4934;50.852;8.098;2023-02-08T14:19:58;4.80;82.20
9790;DHT22;4934;50.852;8.098;2023-02-08T14:22:27;4.90;83.00
9790;DHT22;4934;50.852;8.098;2023-02-08T14:25:17;4.90;83.80
9790;DHT22;4934;50.852;8.098;2023-02-08T14:27:55;4.90;83.00
9790;DHT22;4934;50.852;8.098;2023-02-08T14:30:25;4.70;82.00
9790;DHT22;4934;50.852;8.098;2023-02-08T14:35:36;4.70;78.20
9790;DHT22;4934;50.852;8.098;2023-02-08T14:45:46;4.40;82.30
9790;DHT22;4934;50.852;8.098;2023-02-08T14:48:25;4.40;79.10
9790;DHT22;4934;50.852;8.098;2023-02-08T14:53:45;4.50;79.40
9790;DHT22;4934;50.852;8.098;2023-02-08T14:56:24;4.40;79.50
9790;DHT22;4934;50.852;8.098;2023-02-08T14:58:57;4.40;79.90
9790;DHT22;4934;50.852;8.098;2023-02-08T15:03:59;4.30;85.60
9790;DHT22;4934;50.852;8.098;2023-02-08T15:09:17;4.20;82.70
9790;DHT22;4934;50.852;8.098;2023-02-08T15:11:57;4.30;84.00
9790;DHT22;4934;50.852;8.098;2023-02-08T15:14:24;4.10;80.50
9790;DHT22;4934;50.852;8.098;2023-02-08T15:16:50;4.20;81.50
9790;DHT22;4934;50.852;8.098;2023-02-08T15:19:33;4.20;84.00
9790;DHT22;4934;50.852;8.098;2023-02-08T15:24:49;4.10;85.40
9790;DHT22;4934;50.852;8.098;2023-02-08T15:27:21;4.00;87.90
9790;DHT22;4934;50.852;8.098;2023-02-08T15:29:46;4.00;87.70
9790;DHT22;4934;50.852;8.098;2023-02-08T15:32:15;3.90;89.90
9790;DHT22;4934;50.852;8.098;2023-02-08T15:34:43;3.80;90.30
9790;DHT22;4934;50.852;8.098;2023-02-08T15:37:15;3.80;90.90
9790;DHT22;4934;50.852;8.098;2023-02-08T15:39:41;3.70;90.80
9790;DHT22;4934;50.852;8.098;2023-02-08T15:42:20;3.70;90.20
9790;DHT22;4934;50.852;8.098;2023-02-08T15:44:46;3.60;90.60
9790;DHT22;4934;50.852;8.098;2023-02-08T15:47:30;3.50;91.10
9790;DHT22;4934;50.852;8.098;2023-02-08T15:49:57;3.30;91.50
9790;DHT22;4934;50.852;8.098;2023-02-08T15:52:27;3.30;90.40
9790;DHT22;4934;50.852;8.098;2023-02-08T15:54:54;3.20;90.80
9790;DHT22;4934;50.852;8.098;2023-02-08T15:57:53;3.20;91.20
9790;DHT22;4934;50.852;8.098;2023-02-08T16:00:27;3.00;90.20
9790;DHT22;4934;50.852;8.098;2023-02-08T16:03:06;2.90;90.90
9790;DHT22;4934;50.852;8.098;2023-02-08T16:05:34;2.90;92.70
9790;DHT22;4934;50.852;8.098;2023-02-08T16:08:01;2.80;93.80
9790;DHT22;4934;50.852;8.098;2023-02-08T16:10:39;2.60;93.20
9790;DHT22;4934;50.852;8.098;2023-02-08T16:13:19;2.50;92.60
9790;DHT22;4934;50.852;8.098;2023-02-08T16:15:48;2.40;93.50
9790;DHT22;4934;50.852;8.098;2023-02-08T16:18:34;2.20;95.10
9790;DHT22;4934;50.852;8.098;2023-02-08T16:21:04;2.10;95.80
9790;DHT22;4934;50.852;8.098;2023-02-08T16:23:32;1.90;95.60
9790;DHT22;4934;50.852;8.098;2023-02-08T16:26:11;1.80;96.60
9790;DHT22;4934;50.852;8.098;2023-02-08T16:28:40;1.60;97.90
9790;DHT22;4934;50.852;8.098;2023-02-08T16:31:07;1.40;98.40
9790;DHT22;4934;50.852;8.098;2023-02-08T16:33:33;1.30;98.60
9790;DHT22;4934;50.852;8.098;2023-02-08T16:36:01;1.20;99.70
9790;DHT22;4934;50.852;8.098;2023-02-08T16:38:30;1.00;99.40
9790;DHT22;4934;50.852;8.098;2023-02-08T16:40:57;0.90;99.90
9790;DHT22;4934;50.852;8.098;2023-02-08T16:43:41;0.80;99.90
9790;DHT22;4934;50.852;8.098;2023-02-08T16:48:38;0.50;99.90
9790;DHT22;4934;50.852;8.098;2023-02-08T16:51:06;0.30;99.90
9790;DHT22;4934;50.852;8.098;2023-02-08T16:53:37;0.20;99.90
9790;DHT22;4934;50.852;8.098;2023-02-08T16:56:03;0.10;99.90
9790;DHT22;4934;50.852;8.098;2023-02-08T16:58:28;0.00;99.90
9790;DHT22;4934;50.852;8.098;2023-02-08T17:00:55;-0.10;99.90
9790;DHT22;4934;50.852;8.098;2023-02-08T17:03:22;-0.40;99.90
9790;DHT22;4934;50.852;8.098;2023-02-08T17:05:47;-0.60;99.90
9790;DHT22;4934;50.852;8.098;2023-02-08T17:08:15;-0.60;99.90
9790;DHT22;4934;50.852;8.098;2023-02-08T17:10:42;-0.70;99.90
9790;DHT22;4934;50.852;8.098;2023-02-08T17:13:08;-0.70;99.90
9790;DHT22;4934;50.852;8.098;2023-02-08T17:15:35;-0.70;99.90
9790;DHT22;4934;50.852;8.098;2023-02-08T17:18:01;-0.80;99.90
9790;DHT22;4934;50.852;8.098;2023-02-08T17:20:30;-0.90;99.90
9790;DHT22;4934;50.852;8.098;2023-02-08T17:22:58;-0.80;99.90
9790;DHT22;4934;50.852;8.098;2023-02-08T17:25:24;-0.90;99.90
9790;DHT22;4934;50.852;8.098;2023-02-08T17:27:56;-0.90;99.90
9790;DHT22;4934;50.852;8.098;2023-02-08T17:30:24;-0.90;99.90
9790;DHT22;4934;50.852;8.098;2023-02-08T17:32:51;-1.00;99.90
9790;DHT22;4934;50.852;8.098;2023-02-08T17:35:17;-1.10;99.90
9790;DHT22;4934;50.852;8.098;2023-02-08T17:37:47;-1.20;99.90
9790;DHT22;4934;50.852;8.098;2023-02-08T17:40:13;-1.30;99.90
9790;DHT22;4934;50.852;8.098;2023-02-08T17:42:39;-1.40;99.90
9790;DHT22;4934;50.852;8.098;2023-02-08T17:45:06;-1.50;99.90
9790;DHT22;4934;50.852;8.098;2023-02-08T17:47:32;-1.60;99.90
9790;DHT22;4934;50.852;8.098;2023-02-08T17:49:58;-1.70;99.90
9790;DHT22;4934;50.852;8.098;2023-02-08T17:52:24;-1.70;99.90
9790;DHT22;4934;50.852;8.098;2023-02-08T17:54:49;-1.80;99.90
9790;DHT22;4934;50.852;8.098;2023-02-08T17:57:15;-1.80;99.90
9790;DHT22;4934;50.852;8.098;2023-02-08T17:59:42;-1.80;99.90
9790;DHT22;4934;50.852;8.098;2023-02-08T18:02:08;-1.90;99.90
9790;DHT22;4934;50.852;8.098;2023-02-08T18:04:34;-1.90;99.90
9790;DHT22;4934;50.852;8.098;2023-02-08T18:07:00;-1.90;99.90
9790;DHT22;4934;50.852;8.098;2023-02-08T18:09:25;-2.00;99.90
9790;DHT22;4934;50.852;8.098;2023-02-08T18:11:51;-2.10;99.90
9790;DHT22;4934;50.852;8.098;2023-02-08T18:14:16;-2.10;99.90
9790;DHT22;4934;50.852;8.098;2023-02-08T18:16:43;-2.20;99.90
9790;DHT22;4934;50.852;8.098;2023-02-08T18:19:09;-2.20;99.90
9790;DHT22;4934;50.852;8.098;2023-02-08T18:21:34;-2.20;99.90
9790;DHT22;4934;50.852;8.098;2023-02-08T18:24:04;-2.30;99.90
9790;DHT22;4934;50.852;8.098;2023-02-08T18:26:31;-2.30;99.90
9790;DHT22;4934;50.852;8.098;2023-02-08T18:28:59;-2.20;99.90
9790;DHT22;4934;50.852;8.098;2023-02-08T18:31:26;-2.30;99.90
9790;DHT22;4934;50.852;8.098;2023-02-08T18:33:53;-2.20;99.90
9790;DHT22;4934;50.852;8.098;2023-02-08T18:36:19;-2.20;99.90
9790;DHT22;4934;50.852;8.098;2023-02-08T18:38:47;-2.20;99.90
9790;DHT22;4934;50.852;8.098;2023-02-08T18:41:16;-2.30;99.90
9790;DHT22;4934;50.852;8.098;2023-02-08T18:43:43;-2.30;99.90
9790;DHT22;4934;50.852;8.098;2023-02-08T18:46:11;-2.30;99.90